createdAt,value
2022-08-23T00:00:22.659Z,21.77
2022-08-23T00:02:56.445Z,21.74
2022-08-23T00:05:27.781Z,21.73
2022-08-23T00:07:59.494Z,21.69
2022-08-23T00:10:31.082Z,21.70
2022-08-23T00:13:02.630Z,21.68
2022-08-23T00:15:33.952Z,21.66
2022-08-23T00:18:05.268Z,21.62
2022-08-23T00:20:37.161Z,21.63
2022-08-23T00:23:08.473Z,21.61
2022-08-23T00:25:39.800Z,21.58
2022-08-23T00:28:12.551Z,21.56
2022-08-23T00:30:46.304Z,21.56
2022-08-23T00:33:17.596Z,21.53
2022-08-23T00:35:49.005Z,21.51
2022-08-23T00:38:32.627Z,21.50
2022-08-23T00:41:05.941Z,21.47
2022-08-23T00:43:59.470Z,21.45
2022-08-23T00:46:55.579Z,21.43
2022-08-23T00:49:28.169Z,21.34
2022-08-23T00:52:08.748Z,21.39
2022-08-23T00:54:41.299Z,21.37
2022-08-23T00:57:16.241Z,21.35
2022-08-23T00:59:47.586Z,21.33
2022-08-23T01:02:19.570Z,21.29
2022-08-23T01:04:55.693Z,21.29
2022-08-23T01:07:42.321Z,21.27
2022-08-23T01:10:21.188Z,21.25
2022-08-23T01:12:58.217Z,21.20
2022-08-23T01:15:35.329Z,21.18
2022-08-23T01:18:09.263Z,21.11
2022-08-23T01:20:53.173Z,21.11
2022-08-23T01:23:25.240Z,21.07
2022-08-23T01:25:57.804Z,21.05
2022-08-23T01:28:29.117Z,21.03
2022-08-23T01:31:01.048Z,20.99
2022-08-23T01:33:33.449Z,21.00
2022-08-23T01:36:09.737Z,21.00
2022-08-23T01:38:41.623Z,20.98
2022-08-23T01:41:12.933Z,20.98
2022-08-23T01:43:44.405Z,20.95
2022-08-23T01:46:19.186Z,20.90
2022-08-23T01:48:55.150Z,20.82
2022-08-23T01:51:26.528Z,20.80
2022-08-23T01:53:58.083Z,20.72
2022-08-23T01:56:38.912Z,20.72
2022-08-23T01:59:12.082Z,20.68
2022-08-23T02:01:43.769Z,20.66
2022-08-23T02:04:15.168Z,20.59
2022-08-23T02:06:46.506Z,20.56
2022-08-23T02:09:18.238Z,20.50
2022-08-23T02:11:49.876Z,20.46
2022-08-23T02:14:21.270Z,20.41
2022-08-23T02:17:03.084Z,20.40
2022-08-23T02:19:36.670Z,20.36
2022-08-23T02:22:08.260Z,20.32
2022-08-23T02:24:42.919Z,20.30
2022-08-23T02:27:15.924Z,20.25
2022-08-23T02:29:47.595Z,20.22
2022-08-23T02:32:19.407Z,20.17
2022-08-23T02:35:05.300Z,20.07
2022-08-23T02:37:37.542Z,20.05
2022-08-23T02:40:09.663Z,20.00
2022-08-23T02:42:41.849Z,19.96
2022-08-23T02:45:13.224Z,19.91
2022-08-23T02:47:45.261Z,19.87
2022-08-23T02:50:16.665Z,19.82
2022-08-23T02:52:48.013Z,19.81
2022-08-23T02:55:20.212Z,19.79
2022-08-23T02:57:51.812Z,19.76
2022-08-23T03:00:23.380Z,19.70
2022-08-23T03:02:54.999Z,19.71
2022-08-23T03:05:26.673Z,19.70
2022-08-23T03:07:58.270Z,19.67
2022-08-23T03:10:29.722Z,19.66
2022-08-23T03:13:02.550Z,19.65
2022-08-23T03:15:34.020Z,19.65
2022-08-23T03:18:05.907Z,19.59
2022-08-23T03:20:37.401Z,19.66
2022-08-23T03:23:11.096Z,19.65
2022-08-23T03:25:42.461Z,19.66
2022-08-23T03:28:13.870Z,19.59
2022-08-23T03:30:45.242Z,19.63
2022-08-23T03:33:16.799Z,19.62
2022-08-23T03:35:48.678Z,19.57
2022-08-23T03:38:20.216Z,19.56
2022-08-23T03:40:52.493Z,19.52
2022-08-23T03:43:24.082Z,19.41
2022-08-23T03:45:55.406Z,19.42
2022-08-23T03:48:27.168Z,19.30
2022-08-23T03:50:58.578Z,19.28
2022-08-23T03:53:29.961Z,19.24
2022-08-23T03:56:01.298Z,19.15
2022-08-23T03:58:32.589Z,19.10
2022-08-23T04:01:05.119Z,19.03
2022-08-23T04:03:36.413Z,18.97
2022-08-23T04:06:07.754Z,18.87
2022-08-23T04:08:39.058Z,18.79
2022-08-23T04:11:12.114Z,18.79
2022-08-23T04:13:43.568Z,18.74
2022-08-23T04:16:14.892Z,18.70
2022-08-23T04:18:47.074Z,18.64
2022-08-23T04:21:22.414Z,18.58
2022-08-23T04:23:53.959Z,18.50
2022-08-23T04:26:30.099Z,18.45
2022-08-23T04:29:01.710Z,18.38
2022-08-23T04:31:34.738Z,18.33
2022-08-23T04:34:06.142Z,18.32
2022-08-23T04:36:41.878Z,18.27
2022-08-23T04:39:21.334Z,18.21
2022-08-23T04:42:14.755Z,18.16
2022-08-23T04:44:46.339Z,18.14
2022-08-23T04:47:18.104Z,18.13
2022-08-23T04:49:49.498Z,18.12
2022-08-23T04:52:20.827Z,18.12
2022-08-23T04:54:52.460Z,18.13
2022-08-23T04:57:23.777Z,18.15
2022-08-23T04:59:55.072Z,18.11
2022-08-23T05:02:27.514Z,18.15
2022-08-23T05:04:58.820Z,18.15
2022-08-23T05:07:42.523Z,18.09
2022-08-23T05:10:16.122Z,18.15
2022-08-23T05:12:48.430Z,18.16
2022-08-23T05:15:19.805Z,18.11
2022-08-23T05:17:51.811Z,18.19
2022-08-23T05:20:23.187Z,18.19
2022-08-23T05:22:54.681Z,18.21
2022-08-23T05:25:46.260Z,18.23
2022-08-23T05:28:30.917Z,18.21
2022-08-23T05:31:21.322Z,18.35
2022-08-23T05:33:53.111Z,18.44
2022-08-23T05:36:24.834Z,18.61
2022-08-23T05:38:56.212Z,18.71
2022-08-23T05:41:37.847Z,18.93
2022-08-23T05:44:10.482Z,19.06
2022-08-23T05:46:45.401Z,19.24
2022-08-23T05:49:21.070Z,19.45
2022-08-23T05:51:52.709Z,19.64
2022-08-23T05:54:24.115Z,19.80
2022-08-23T05:56:55.462Z,20.16
2022-08-23T05:59:27.011Z,21.00
2022-08-23T06:01:58.390Z,21.94
2022-08-23T06:04:29.860Z,22.40
2022-08-23T06:07:01.198Z,22.34
2022-08-23T06:09:32.888Z,22.23
2022-08-23T06:12:04.330Z,22.13
2022-08-23T06:14:35.753Z,22.06
2022-08-23T06:17:07.370Z,21.94
2022-08-23T06:19:38.666Z,21.90
2022-08-23T06:22:10.198Z,22.06
2022-08-23T06:24:41.646Z,22.30
2022-08-23T06:27:13.862Z,22.36
2022-08-23T06:29:46.013Z,22.49
2022-08-23T06:32:17.500Z,22.57
2022-08-23T06:34:48.837Z,22.64
2022-08-23T06:37:20.242Z,22.57
2022-08-23T06:39:53.079Z,22.72
2022-08-23T06:42:40.994Z,22.81
2022-08-23T06:45:14.268Z,22.88
2022-08-23T06:47:45.636Z,23.00
2022-08-23T06:50:18.192Z,23.06
2022-08-23T06:52:50.657Z,23.14
2022-08-23T06:55:22.241Z,23.24
2022-08-23T06:57:53.616Z,23.32
2022-08-23T07:00:25.021Z,23.40
2022-08-23T07:02:56.571Z,23.44
2022-08-23T07:05:27.945Z,23.56
2022-08-23T07:07:59.352Z,23.71
2022-08-23T07:10:30.656Z,23.77
2022-08-23T07:13:03.647Z,23.81
2022-08-23T07:15:34.961Z,23.90
2022-08-23T07:18:06.356Z,24.04
2022-08-23T07:20:42.322Z,24.23
2022-08-23T07:23:15.579Z,24.33
2022-08-23T07:25:46.925Z,24.42
2022-08-23T07:28:18.836Z,24.54
2022-08-23T07:30:50.191Z,24.67
2022-08-23T07:33:22.560Z,24.82
2022-08-23T07:35:54.429Z,24.95
2022-08-23T07:38:30.601Z,24.98
2022-08-23T07:41:06.195Z,24.99
2022-08-23T07:43:38.855Z,25.02
2022-08-23T07:46:12.558Z,25.08
2022-08-23T07:48:53.850Z,25.24
2022-08-23T07:51:30.610Z,25.39
2022-08-23T07:54:08.388Z,25.55
2022-08-23T07:56:40.525Z,25.65
2022-08-23T07:59:11.900Z,25.77
2022-08-23T08:01:44.064Z,25.91
2022-08-23T08:04:15.825Z,26.10
2022-08-23T08:07:04.956Z,26.22
2022-08-23T08:09:41.561Z,26.26
2022-08-23T08:12:12.977Z,26.39
2022-08-23T08:14:44.605Z,26.55
2022-08-23T08:17:18.206Z,26.60
2022-08-23T08:19:49.522Z,26.63
2022-08-23T08:22:20.834Z,26.72
2022-08-23T08:24:52.128Z,26.81
2022-08-23T08:27:23.427Z,26.90
2022-08-23T08:29:55.220Z,26.93
2022-08-23T08:32:26.749Z,26.97
2022-08-23T08:34:58.048Z,27.04
2022-08-23T08:37:30.886Z,27.14
2022-08-23T08:40:02.788Z,27.26
2022-08-23T08:42:48.597Z,27.24
2022-08-23T08:45:27.178Z,27.30
2022-08-23T08:48:13.526Z,27.40
2022-08-23T08:51:01.114Z,27.45
2022-08-23T08:53:39.874Z,27.56
2022-08-23T08:56:22.165Z,27.68
2022-08-23T08:59:00.046Z,27.77
2022-08-23T09:01:34.975Z,27.79
2022-08-23T09:04:07.505Z,27.77
2022-08-23T09:06:57.170Z,27.74
2022-08-23T09:09:44.947Z,27.91
2022-08-23T09:12:24.660Z,28.08
2022-08-23T09:15:15.060Z,28.24
2022-08-23T09:17:58.714Z,28.33
2022-08-23T09:20:33.197Z,28.31
2022-08-23T09:23:29.386Z,28.38
2022-08-23T09:26:05.052Z,28.42
2022-08-23T09:28:37.483Z,28.50
2022-08-23T09:31:08.858Z,28.53
2022-08-23T09:33:45.987Z,28.62
2022-08-23T09:36:25.290Z,28.78
2022-08-23T09:39:30.818Z,28.86
2022-08-23T09:42:02.407Z,28.79
2022-08-23T09:44:43.269Z,28.77
2022-08-23T09:47:17.100Z,28.64
2022-08-23T09:49:48.647Z,28.57
2022-08-23T09:52:41.418Z,28.60
2022-08-23T09:55:31.948Z,28.64
2022-08-23T09:58:06.987Z,28.76
2022-08-23T10:00:40.865Z,28.81
2022-08-23T10:03:28.813Z,28.94
2022-08-23T10:06:01.654Z,28.99
2022-08-23T10:08:43.105Z,29.06
2022-08-23T10:11:24.337Z,29.13
2022-08-23T10:13:57.132Z,29.14
2022-08-23T10:16:47.957Z,29.21
2022-08-23T10:20:04.764Z,29.27
2022-08-23T10:22:52.083Z,29.32
2022-08-23T10:25:35.654Z,29.30
2022-08-23T10:28:44.438Z,29.31
2022-08-23T10:31:48.350Z,29.39
2022-08-23T10:34:33.469Z,29.39
2022-08-23T10:37:27.683Z,29.44
2022-08-23T10:40:31.169Z,29.43
2022-08-23T10:43:22.558Z,29.39
2022-08-23T10:46:00.181Z,29.40
2022-08-23T10:48:52.082Z,29.45
2022-08-23T10:51:31.804Z,29.60
2022-08-23T10:54:12.488Z,29.80
2022-08-23T10:56:50.246Z,29.91
2022-08-23T10:59:25.889Z,29.90
2022-08-23T11:02:25.600Z,29.85
2022-08-23T11:05:07.174Z,29.85
2022-08-23T11:07:41.928Z,29.89
2022-08-23T11:10:34.734Z,29.89
2022-08-23T11:13:15.654Z,29.86
2022-08-23T11:16:15.044Z,29.85
2022-08-23T11:18:49.450Z,29.86
2022-08-23T11:21:30.679Z,29.91
2022-08-23T11:24:02.394Z,30.01
2022-08-23T11:26:37.658Z,30.10
2022-08-23T11:29:12.317Z,30.11
2022-08-23T11:31:58.546Z,30.03
2022-08-23T11:34:42.718Z,30.11
2022-08-23T11:37:20.050Z,30.22
2022-08-23T11:39:57.704Z,30.26
2022-08-23T11:42:29.145Z,30.31
2022-08-23T11:45:01.067Z,30.37
2022-08-23T11:47:42.166Z,30.46
2022-08-23T11:50:59.817Z,30.45
2022-08-23T11:53:43.271Z,30.42
2022-08-23T11:56:45.998Z,30.48
2022-08-23T12:00:02.144Z,30.45
2022-08-23T12:02:42.616Z,30.56
2022-08-23T12:05:15.013Z,30.63
2022-08-23T12:08:03.989Z,30.68
2022-08-23T12:10:41.573Z,30.64
2022-08-23T12:13:19.428Z,30.54
2022-08-23T12:16:16.698Z,30.50
2022-08-23T12:18:48.634Z,30.63
2022-08-23T12:21:47.317Z,30.77
2022-08-23T12:24:24.488Z,30.88
2022-08-23T12:27:25.797Z,30.90
2022-08-23T12:30:07.407Z,30.90
2022-08-23T12:32:42.168Z,30.91
2022-08-23T12:35:22.541Z,30.91
2022-08-23T12:38:12.247Z,30.99
2022-08-23T12:40:49.968Z,31.04
2022-08-23T12:43:27.215Z,31.02
2022-08-23T12:46:02.086Z,30.99
2022-08-23T12:48:44.758Z,31.06
2022-08-23T12:51:17.219Z,31.16
2022-08-23T12:53:48.652Z,31.27
2022-08-23T12:56:31.425Z,31.30
2022-08-23T12:59:07.487Z,31.32
2022-08-23T13:01:39.933Z,31.25
2022-08-23T13:04:15.593Z,31.11
2022-08-23T13:06:52.623Z,31.04
2022-08-23T13:09:31.285Z,31.00
2022-08-23T13:12:04.679Z,31.04
2022-08-23T13:14:48.826Z,31.06
2022-08-23T13:17:40.933Z,31.02
2022-08-23T13:20:21.805Z,30.96
2022-08-23T13:23:01.487Z,31.01
2022-08-23T13:25:35.716Z,31.04
2022-08-23T13:28:29.422Z,31.11
2022-08-23T13:31:04.108Z,31.10
2022-08-23T13:33:35.918Z,31.12
2022-08-23T13:36:21.409Z,31.20
2022-08-23T13:38:52.978Z,31.28
2022-08-23T13:41:39.099Z,31.21
2022-08-23T13:44:12.030Z,31.14
2022-08-23T13:46:47.507Z,31.21
2022-08-23T13:49:27.348Z,31.25
2022-08-23T13:52:11.927Z,31.25
2022-08-23T13:54:51.242Z,31.29
2022-08-23T13:57:26.463Z,31.36
2022-08-23T13:59:59.861Z,31.34
2022-08-23T14:02:31.158Z,31.32
2022-08-23T14:05:03.661Z,31.21
2022-08-23T14:07:35.469Z,31.17
2022-08-23T14:10:07.398Z,31.16
2022-08-23T14:12:38.853Z,31.18
2022-08-23T14:15:15.964Z,31.26
2022-08-23T14:17:50.234Z,31.38
2022-08-23T14:23:14.376Z,31.46
2022-08-23T14:25:56.122Z,31.35
2022-08-23T14:28:29.904Z,31.32
2022-08-23T14:31:02.501Z,31.33
2022-08-23T14:33:33.960Z,31.34
2022-08-23T14:36:06.824Z,31.37
2022-08-23T14:38:39.457Z,31.39
2022-08-23T14:41:16.845Z,31.40
2022-08-23T14:43:49.612Z,31.34
2022-08-23T14:46:23.053Z,31.32
2022-08-23T14:48:54.390Z,31.27
2022-08-23T14:51:30.080Z,31.19
2022-08-23T14:54:03.825Z,31.16
2022-08-23T14:56:35.200Z,31.15
2022-08-23T14:59:06.844Z,31.14
2022-08-23T15:01:39.451Z,31.14
2022-08-23T15:04:16.847Z,31.14
2022-08-23T15:07:16.170Z,31.14
2022-08-23T15:09:41.622Z,31.07
2022-08-23T15:15:07.246Z,31.02
2022-08-23T15:17:46.784Z,30.97
2022-08-23T15:20:24.974Z,30.93
2022-08-23T15:22:57.392Z,30.85
2022-08-23T15:25:32.133Z,30.76
2022-08-23T15:28:10.809Z,30.72
2022-08-23T15:30:45.672Z,30.67
2022-08-23T15:33:18.672Z,30.61
2022-08-23T15:35:52.085Z,30.44
2022-08-23T15:38:24.991Z,30.40
2022-08-23T15:40:56.831Z,30.42
2022-08-23T15:43:34.497Z,30.39
2022-08-23T15:46:09.176Z,30.39
2022-08-23T15:48:48.514Z,30.36
2022-08-23T15:51:20.267Z,30.33
2022-08-23T15:53:51.783Z,30.30
2022-08-23T15:56:30.257Z,30.30
2022-08-23T15:59:01.837Z,30.24
2022-08-23T16:01:33.836Z,30.29
2022-08-23T16:04:05.353Z,30.22
2022-08-23T16:06:39.261Z,30.21
2022-08-23T16:09:19.196Z,30.12
2022-08-23T16:11:51.503Z,30.11
2022-08-23T16:14:22.901Z,30.04
2022-08-23T16:16:54.427Z,29.95
2022-08-23T16:19:26.755Z,29.89
2022-08-23T16:21:58.890Z,29.81
2022-08-23T16:24:30.311Z,29.70
2022-08-23T16:27:01.673Z,29.64
2022-08-23T16:29:35.854Z,29.50
2022-08-23T16:32:08.607Z,29.45
2022-08-23T16:34:39.989Z,29.37
2022-08-23T16:37:11.302Z,29.27
2022-08-23T16:39:44.844Z,29.23
2022-08-23T16:42:16.240Z,29.14
2022-08-23T16:44:47.524Z,29.11
2022-08-23T16:47:19.095Z,28.99
2022-08-23T16:49:50.427Z,28.97
2022-08-23T16:52:34.433Z,28.92
2022-08-23T16:55:09.890Z,28.85
2022-08-23T16:57:41.749Z,28.80
2022-08-23T17:00:14.128Z,28.72
2022-08-23T17:02:45.621Z,28.64
2022-08-23T17:05:18.996Z,28.63
2022-08-23T17:07:52.882Z,28.55
2022-08-23T17:10:25.632Z,28.51
2022-08-23T17:12:57.827Z,28.44
2022-08-23T17:15:34.493Z,28.39
2022-08-23T17:18:06.254Z,28.32
2022-08-23T17:20:39.200Z,28.26
2022-08-23T17:23:11.350Z,28.20
2022-08-23T17:25:47.549Z,28.14
2022-08-23T17:28:18.832Z,28.09
2022-08-23T17:30:50.204Z,28.04
2022-08-23T17:33:21.580Z,27.96
2022-08-23T17:35:53.113Z,27.89
2022-08-23T17:38:24.443Z,27.81
2022-08-23T17:40:55.793Z,27.72
2022-08-23T17:43:27.198Z,27.66
2022-08-23T17:45:58.613Z,27.60
2022-08-23T17:48:29.925Z,27.52
2022-08-23T17:51:01.494Z,27.43
2022-08-23T17:53:33.074Z,27.32
2022-08-23T17:56:06.433Z,27.20
2022-08-23T17:58:41.811Z,27.10
2022-08-23T18:01:13.899Z,27.01
2022-08-23T18:03:45.238Z,26.93
2022-08-23T18:06:17.544Z,26.84
2022-08-23T18:08:48.982Z,26.75
2022-08-23T18:11:20.300Z,26.61
2022-08-23T18:13:51.584Z,26.55
2022-08-23T18:16:22.979Z,26.45
2022-08-23T18:18:54.850Z,26.34
2022-08-23T18:21:29.044Z,26.23
2022-08-23T18:24:02.332Z,26.14
2022-08-23T18:26:54.148Z,26.03
2022-08-23T18:29:25.645Z,25.91
2022-08-23T18:31:57.071Z,25.83
2022-08-23T18:34:29.378Z,25.74
2022-08-23T18:37:01.011Z,25.61
2022-08-23T18:39:32.467Z,25.56
2022-08-23T18:42:05.675Z,25.48
2022-08-23T18:44:36.969Z,25.39
2022-08-23T18:47:08.676Z,25.30
2022-08-23T18:49:40.080Z,25.22
2022-08-23T18:52:12.287Z,25.14
2022-08-23T18:54:43.709Z,25.05
2022-08-23T18:57:16.256Z,24.98
2022-08-23T18:59:47.670Z,24.91
2022-08-23T19:02:19.422Z,24.84
2022-08-23T19:04:53.013Z,24.74
2022-08-23T19:07:24.325Z,24.68
2022-08-23T19:09:55.909Z,24.62
2022-08-23T19:12:28.462Z,24.56
2022-08-23T19:15:00.024Z,24.48
2022-08-23T19:17:31.885Z,24.43
2022-08-23T19:20:05.992Z,24.39
2022-08-23T19:22:37.676Z,24.31
2022-08-23T19:25:09.253Z,24.23
2022-08-23T19:27:40.708Z,24.18
2022-08-23T19:30:13.262Z,24.07
2022-08-23T19:32:48.733Z,24.03
2022-08-23T19:35:21.042Z,23.93
2022-08-23T19:37:52.338Z,23.89
2022-08-23T19:40:23.757Z,23.77
2022-08-23T19:42:55.366Z,23.69
2022-08-23T19:45:27.208Z,23.65
2022-08-23T19:48:03.755Z,23.58
2022-08-23T19:50:35.295Z,23.54
2022-08-23T19:53:07.642Z,23.47
2022-08-23T19:55:41.755Z,23.39
2022-08-23T19:58:14.090Z,23.35
2022-08-23T20:00:45.714Z,23.27
2022-08-23T20:03:17.115Z,23.27
2022-08-23T20:05:48.548Z,23.21
2022-08-23T20:08:19.905Z,23.19
2022-08-23T20:10:51.355Z,23.10
2022-08-23T20:13:23.309Z,23.08
2022-08-23T20:15:56.411Z,23.00
2022-08-23T20:18:27.807Z,22.96
2022-08-23T20:20:59.358Z,22.94
2022-08-23T20:23:49.119Z,22.91
2022-08-23T20:26:21.059Z,22.86
2022-08-23T20:29:00.001Z,22.81
2022-08-23T20:31:36.258Z,22.75
2022-08-23T20:34:08.825Z,22.71
2022-08-23T20:36:40.741Z,22.67
2022-08-23T20:39:12.341Z,22.64
2022-08-23T20:41:43.642Z,22.59
2022-08-23T20:44:16.128Z,22.55
2022-08-23T20:46:53.177Z,22.49
2022-08-23T20:49:25.858Z,22.45
2022-08-23T20:51:57.174Z,22.43
2022-08-23T20:54:28.482Z,22.33
2022-08-23T20:56:59.874Z,22.36
2022-08-23T20:59:31.296Z,22.32
2022-08-23T21:02:02.782Z,22.31
2022-08-23T21:04:34.110Z,22.29
2022-08-23T21:07:05.708Z,22.29
2022-08-23T21:09:37.093Z,22.30
2022-08-23T21:12:09.473Z,22.31
2022-08-23T21:14:40.859Z,22.29
2022-08-23T21:17:12.168Z,22.33
2022-08-23T21:19:44.159Z,22.29
2022-08-23T21:22:15.468Z,22.30
2022-08-23T21:24:46.754Z,22.27
2022-08-23T21:27:20.114Z,22.22
2022-08-23T21:29:51.399Z,22.19
2022-08-23T21:32:22.704Z,22.17
2022-08-23T21:34:54.066Z,22.14
2022-08-23T21:37:26.102Z,22.09
2022-08-23T21:39:57.461Z,22.02
2022-08-23T21:42:30.456Z,22.02
2022-08-23T21:45:01.889Z,21.97
2022-08-23T21:47:34.974Z,21.91
2022-08-23T21:50:07.037Z,21.89
2022-08-23T21:52:38.407Z,21.86
2022-08-23T21:55:10.026Z,21.83
2022-08-23T21:57:43.265Z,21.79
2022-08-23T22:00:18.402Z,21.72
2022-08-23T22:02:49.791Z,21.76
2022-08-23T22:05:21.141Z,21.74
2022-08-23T22:07:53.446Z,21.75
2022-08-23T22:10:24.772Z,21.71
2022-08-23T22:12:56.073Z,21.70
2022-08-23T22:15:27.562Z,21.70
2022-08-23T22:18:00.567Z,21.64
2022-08-23T22:20:32.896Z,21.67
2022-08-23T22:23:04.428Z,21.62
2022-08-23T22:25:35.766Z,21.63
2022-08-23T22:28:07.976Z,21.61
2022-08-23T22:30:42.176Z,21.57
2022-08-23T22:33:13.603Z,21.57
2022-08-23T22:35:48.449Z,21.47
2022-08-23T22:38:20.480Z,21.50
2022-08-23T22:40:52.604Z,21.46
2022-08-23T22:43:24.192Z,21.43
2022-08-23T22:45:59.766Z,21.38
2022-08-23T22:48:35.003Z,21.31
2022-08-23T22:51:14.136Z,21.30
2022-08-23T22:53:48.696Z,21.24
2022-08-23T22:56:23.106Z,21.18
2022-08-23T22:58:54.510Z,21.13
2022-08-23T23:01:32.093Z,21.07
2022-08-23T23:04:08.232Z,21.02
2022-08-23T23:06:39.905Z,20.99
2022-08-23T23:09:13.187Z,20.94
2022-08-23T23:11:45.570Z,20.90
2022-08-23T23:14:18.728Z,20.87
2022-08-23T23:16:50.741Z,20.84
2022-08-23T23:19:40.866Z,20.81
2022-08-23T23:22:12.170Z,20.79
2022-08-23T23:24:43.523Z,20.79
2022-08-23T23:27:14.848Z,20.79
2022-08-23T23:29:46.650Z,20.81
2022-08-23T23:32:18.166Z,20.83
2022-08-23T23:34:49.565Z,20.87
2022-08-23T23:37:20.900Z,20.92
2022-08-23T23:39:52.262Z,20.98
2022-08-23T23:42:23.565Z,20.99
2022-08-23T23:44:54.966Z,21.06
2022-08-23T23:47:26.826Z,21.10
2022-08-23T23:49:58.281Z,21.12
2022-08-23T23:52:29.576Z,21.11
2022-08-23T23:55:03.576Z,21.09
2022-08-23T23:57:35.126Z,21.03
